Time;durP1;ratioP1;P1;durP2;ratioP2;P2;SDS_P1;SDS_P2;PMS_P1;PMS_P2;Temp;Humidity;BMP_temperature;BMP_pressure;BME280_temperature;BME280_humidity;BME280_pressure;Samples;Min_cycle;Max_cycle;Signal;HPM_P1;HPM_P2
2022/01/15 00:00:35;;;;;;;22.43;13.67;;;1.40;99.90;;;;;;5057118;28;20458;-62
2022/01/15 00:03:04;;;;;;;39.47;15.57;;;1.40;99.90;;;;;;5050044;28;20922;-62
2022/01/15 00:05:31;;;;;;;43.97;14.23;;;1.50;99.90;;;;;;5050392;28;20454;-62
2022/01/15 00:07:58;;;;;;;54.30;15.03;;;1.60;99.90;;;;;;5058686;28;20535;-62
2022/01/15 00:10:27;;;;;;;39.90;14.47;;;1.60;99.90;;;;;;5055943;28;20458;-62
2022/01/15 00:12:56;;;;;;;46.87;15.47;;;1.60;99.90;;;;;;5062426;28;20437;-62
2022/01/15 00:15:27;;;;;;;42.33;16.07;;;1.60;99.90;;;;;;5060824;28;20829;-62
2022/01/15 00:18:00;;;;;;;41.07;14.20;;;1.60;99.90;;;;;;5057811;28;20494;-63
2022/01/15 00:20:28;;;;;;;41.20;15.40;;;1.60;99.90;;;;;;5064334;28;20754;-62
2022/01/15 00:22:56;;;;;;;34.30;15.53;;;1.60;99.90;;;;;;5062553;28;20941;-62
2022/01/15 00:25:27;;;;;;;30.83;14.27;;;1.60;99.90;;;;;;5054472;28;20451;-62
2022/01/15 00:27:56;;;;;;;36.30;15.03;;;1.60;99.90;;;;;;5066476;28;20455;-62
2022/01/15 00:30:23;;;;;;;31.40;15.23;;;1.70;99.90;;;;;;5073325;28;20456;-62
2022/01/15 00:32:52;;;;;;;40.17;15.47;;;1.70;99.90;;;;;;5081798;28;20456;-62
2022/01/15 00:35:21;;;;;;;30.10;14.53;;;1.70;99.90;;;;;;5080976;28;20862;-62
2022/01/15 00:37:54;;;;;;;29.30;13.87;;;1.70;99.90;;;;;;5075542;28;20765;-62
2022/01/15 00:40:23;;;;;;;33.30;15.70;;;1.70;99.90;;;;;;5076204;28;20454;-62
2022/01/15 00:42:53;;;;;;;36.67;14.70;;;1.80;99.90;;;;;;5079539;28;20458;-62
2022/01/15 00:45:22;;;;;;;32.73;15.43;;;1.80;99.90;;;;;;5077553;28;20552;-62
2022/01/15 00:47:50;;;;;;;25.03;13.20;;;1.80;99.90;;;;;;5081125;28;20465;-62
2022/01/15 00:50:20;;;;;;;31.37;14.60;;;1.80;99.90;;;;;;5076269;28;20760;-62
2022/01/15 00:52:51;;;;;;;28.77;14.00;;;1.80;99.90;;;;;;5081165;28;20497;-62
2022/01/15 00:55:25;;;;;;;34.47;15.97;;;1.80;99.90;;;;;;5075531;28;20485;-62
2022/01/15 00:57:52;;;;;;;26.93;15.27;;;1.80;99.90;;;;;;5083547;28;20458;-62
2022/01/15 01:00:23;;;;;;;30.87;15.50;;;1.90;99.90;;;;;;5084246;28;20432;-62
2022/01/15 01:02:52;;;;;;;31.60;14.57;;;1.90;99.90;;;;;;5080347;28;20497;-62
2022/01/15 01:05:22;;;;;;;28.90;14.87;;;1.90;99.90;;;;;;5079819;28;21052;-62
2022/01/15 01:07:51;;;;;;;26.97;15.03;;;1.90;99.90;;;;;;5078258;28;20814;-62
2022/01/15 01:10:45;;;;;;;36.10;14.73;;;2.00;99.90;;;;;;5068676;28;20564;-62
2022/01/15 01:13:38;;;;;;;29.53;13.10;;;2.00;99.90;;;;;;5079000;28;20897;-62
2022/01/15 01:24:18;;;;;;;22.33;12.40;;;2.10;99.90;;;;;;5049672;28;20457;-62
2022/01/15 01:26:53;;;;;;;25.13;13.50;;;2.10;99.90;;;;;;5067471;28;20875;-62
2022/01/15 01:29:29;;;;;;;19.10;11.53;;;2.10;99.90;;;;;;5087273;28;20515;-62
2022/01/15 01:32:03;;;;;;;20.67;10.90;;;2.10;99.90;;;;;;5080064;28;20471;-62
2022/01/15 01:34:33;;;;;;;13.67;8.70;;;2.10;99.90;;;;;;5083198;28;20789;-62
2022/01/15 01:37:07;;;;;;;16.00;9.17;;;2.10;99.90;;;;;;5079975;28;20793;-61
2022/01/15 01:39:42;;;;;;;14.50;8.43;;;2.10;99.90;;;;;;5089184;28;20473;-62
2022/01/15 01:42:26;;;;;;;15.23;9.00;;;2.10;99.90;;;;;;5077831;28;20469;-62
2022/01/15 01:45:06;;;;;;;14.63;8.47;;;2.10;99.90;;;;;;5078191;28;20480;-62
2022/01/15 01:47:41;;;;;;;12.30;7.87;;;2.00;99.90;;;;;;5077321;28;20461;-62
2022/01/15 01:50:12;;;;;;;14.00;8.50;;;2.00;99.90;;;;;;5078111;28;20464;-62
2022/01/15 01:52:41;;;;;;;12.53;7.97;;;2.00;99.90;;;;;;5078086;28;20505;-62
2022/01/15 01:55:09;;;;;;;11.83;8.23;;;1.90;99.90;;;;;;5085912;28;20493;-62
2022/01/15 01:57:37;;;;;;;14.30;8.60;;;1.90;99.90;;;;;;5077293;28;20469;-62
2022/01/15 02:00:08;;;;;;;14.90;9.27;;;1.80;99.90;;;;;;5077964;28;20461;-62
2022/01/15 02:02:37;;;;;;;16.43;8.93;;;1.90;99.90;;;;;;5087970;28;20522;-62
2022/01/15 02:05:05;;;;;;;16.17;8.10;;;1.90;99.90;;;;;;5091523;28;20444;-62
2022/01/15 02:07:32;;;;;;;15.07;7.97;;;1.90;99.90;;;;;;5086370;28;20522;-61
2022/01/15 02:09:59;;;;;;;12.77;7.43;;;1.80;99.90;;;;;;5085935;28;20898;-62
2022/01/15 02:12:27;;;;;;;10.67;6.60;;;1.80;99.90;;;;;;5077731;28;20969;-62
2022/01/15 02:14:54;;;;;;;13.83;7.80;;;1.70;99.90;;;;;;5084570;28;20545;-62
2022/01/15 02:17:21;;;;;;;12.13;8.07;;;1.70;99.90;;;;;;5097822;28;20459;-62
2022/01/15 02:20:10;;;;;;;13.33;8.33;;;1.70;99.90;;;;;;5082617;28;20904;-62
2022/01/15 02:25:24;;;;;;;15.30;9.60;;;1.60;99.90;;;;;;5076587;28;20790;-62
2022/01/15 02:27:51;;;;;;;15.10;8.73;;;1.50;99.90;;;;;;5077180;28;20523;-61
2022/01/15 02:30:21;;;;;;;16.70;10.00;;;1.50;99.90;;;;;;5073829;28;20504;-62
2022/01/15 02:32:48;;;;;;;16.77;10.17;;;1.50;99.90;;;;;;5076023;28;20465;-62
2022/01/15 02:35:17;;;;;;;17.33;9.43;;;1.50;99.90;;;;;;5077522;28;20793;-61
2022/01/15 02:37:44;;;;;;;14.83;9.60;;;1.50;99.90;;;;;;5072803;28;20523;-61
2022/01/15 02:40:12;;;;;;;13.90;9.30;;;1.50;99.90;;;;;;5078359;28;20579;-62
2022/01/15 02:42:40;;;;;;;13.93;8.27;;;1.40;99.90;;;;;;5073331;28;20973;-61
2022/01/15 02:45:08;;;;;;;15.03;9.90;;;1.50;99.90;;;;;;5065416;28;20457;-61
2022/01/15 02:50:22;;;;;;;15.90;9.93;;;1.50;99.90;;;;;;5067909;28;20584;-61
2022/01/15 02:52:49;;;;;;;17.20;9.27;;;1.50;99.90;;;;;;5067586;28;20530;-61
2022/01/15 02:55:20;;;;;;;13.40;8.47;;;1.40;99.90;;;;;;5064872;28;20486;-61
2022/01/15 02:57:47;;;;;;;12.73;8.87;;;1.30;99.90;;;;;;5067952;28;20486;-61
2022/01/15 03:00:15;;;;;;;15.33;9.10;;;1.30;99.90;;;;;;5069475;28;20478;-61
2022/01/15 03:02:42;;;;;;;15.87;9.13;;;1.40;99.90;;;;;;5069255;28;20517;-61
2022/01/15 03:05:13;;;;;;;12.37;9.37;;;1.40;99.90;;;;;;5064922;28;20465;-61
2022/01/15 03:07:41;;;;;;;15.07;8.97;;;1.30;99.90;;;;;;5071862;28;20464;-61
2022/01/15 03:10:09;;;;;;;15.50;9.10;;;1.40;99.90;;;;;;5070079;28;20592;-61
2022/01/15 03:12:37;;;;;;;15.70;9.13;;;1.30;99.90;;;;;;5066587;28;20480;-61
2022/01/15 03:15:06;;;;;;;14.17;8.40;;;1.30;99.90;;;;;;5075348;28;20485;-61
2022/01/15 03:17:35;;;;;;;18.07;9.07;;;1.30;99.90;;;;;;5071270;28;20798;-61
2022/01/15 03:20:05;;;;;;;14.67;9.30;;;1.40;99.90;;;;;;5065708;28;20466;-61
2022/01/15 03:22:35;;;;;;;16.37;9.20;;;1.40;99.90;;;;;;5073502;28;20495;-61
2022/01/15 03:25:04;;;;;;;20.30;10.93;;;1.40;99.90;;;;;;5076824;28;20496;-61
2022/01/15 03:27:31;;;;;;;12.73;9.30;;;1.40;99.90;;;;;;5075829;28;20554;-61
2022/01/15 03:29:58;;;;;;;15.23;9.77;;;1.40;99.90;;;;;;5070711;28;20458;-61
2022/01/15 03:32:25;;;;;;;18.43;9.23;;;1.40;99.90;;;;;;5065298;28;20461;-61
2022/01/15 03:34:52;;;;;;;17.60;9.97;;;1.40;99.90;;;;;;5072628;28;20461;-61
2022/01/15 03:37:20;;;;;;;31.07;10.03;;;1.40;99.90;;;;;;5072286;28;20469;-61
2022/01/15 03:39:47;;;;;;;23.53;10.23;;;1.40;99.90;;;;;;5071796;28;20516;-61
2022/01/15 03:42:15;;;;;;;15.83;9.40;;;1.50;99.90;;;;;;5069359;28;20512;-61
2022/01/15 03:44:45;;;;;;;16.90;8.10;;;1.40;99.90;;;;;;5073389;28;20493;-61
2022/01/15 03:47:13;;;;;;;14.93;8.57;;;1.50;99.90;;;;;;5072313;28;20838;-61
2022/01/15 03:49:41;;;;;;;14.40;8.50;;;1.40;99.90;;;;;;5078232;28;20488;-61
2022/01/15 03:52:14;;;;;;;15.83;8.93;;;1.50;99.90;;;;;;5067084;28;20500;-61
2022/01/15 03:54:43;;;;;;;12.80;8.97;;;1.40;99.90;;;;;;5055605;28;20553;-61
2022/01/15 03:57:15;;;;;;;14.50;8.60;;;1.40;99.90;;;;;;5050145;28;20497;-61
2022/01/15 03:59:47;;;;;;;11.67;7.80;;;1.50;99.90;;;;;;5049819;28;20455;-61
2022/01/15 04:02:14;;;;;;;14.20;8.17;;;1.40;99.90;;;;;;5051433;28;20751;-61
2022/01/15 04:04:44;;;;;;;12.23;8.30;;;1.40;99.90;;;;;;5049819;28;20537;-61
2022/01/15 04:07:19;;;;;;;13.43;8.27;;;1.50;99.90;;;;;;5055255;28;20467;-61
2022/01/15 04:09:46;;;;;;;11.20;7.30;;;1.40;99.90;;;;;;5054771;28;20520;-61
2022/01/15 04:12:13;;;;;;;13.37;7.53;;;1.30;99.90;;;;;;5050363;28;20914;-61
2022/01/15 04:14:40;;;;;;;14.10;7.70;;;1.30;99.90;;;;;;5049842;28;20466;-61
2022/01/15 04:17:09;;;;;;;13.90;8.60;;;1.30;99.90;;;;;;5069095;28;20501;-61
2022/01/15 04:19:36;;;;;;;13.50;8.30;;;1.30;99.90;;;;;;5063793;28;20451;-61
2022/01/15 04:22:04;;;;;;;15.03;8.57;;;1.40;99.90;;;;;;5068960;28;20921;-60
2022/01/15 04:24:31;;;;;;;15.43;7.90;;;1.40;99.90;;;;;;5061830;28;20458;-61
2022/01/15 04:26:59;;;;;;;13.47;7.77;;;1.40;99.90;;;;;;5060896;28;20761;-61
2022/01/15 04:29:26;;;;;;;16.53;7.97;;;1.40;99.90;;;;;;5075849;28;20458;-61
2022/01/15 04:31:53;;;;;;;15.20;8.30;;;1.40;99.90;;;;;;5075757;28;20994;-61
2022/01/15 04:34:24;;;;;;;15.00;9.03;;;1.40;99.90;;;;;;5079181;28;20498;-61
2022/01/15 04:36:53;;;;;;;15.10;9.50;;;1.40;99.90;;;;;;5078752;28;20496;-61
2022/01/15 04:39:21;;;;;;;14.10;8.47;;;1.40;99.90;;;;;;5078723;28;20806;-61
2022/01/15 04:41:48;;;;;;;19.70;10.03;;;1.40;99.90;;;;;;5079845;28;20503;-61
2022/01/15 04:44:15;;;;;;;14.40;7.80;;;1.40;99.90;;;;;;5080880;28;20482;-61
2022/01/15 04:46:42;;;;;;;14.53;8.50;;;1.40;99.90;;;;;;5078591;28;20503;-61
2022/01/15 04:49:09;;;;;;;11.97;8.10;;;1.40;99.90;;;;;;5078881;28;20515;-61
2022/01/15 04:51:38;;;;;;;15.03;9.60;;;1.40;99.90;;;;;;5077813;28;20453;-61
2022/01/15 04:54:05;;;;;;;35.47;23.00;;;1.40;99.90;;;;;;5078326;28;20453;-60
2022/01/15 04:56:32;;;;;;;24.00;15.60;;;1.40;99.90;;;;;;5078690;28;20926;-60
2022/01/15 04:58:59;;;;;;;15.77;9.60;;;1.30;99.90;;;;;;5078876;28;20493;-60
2022/01/15 05:01:28;;;;;;;31.10;19.10;;;1.30;99.90;;;;;;5078073;28;20458;-61
2022/01/15 05:03:55;;;;;;;26.07;16.67;;;1.30;99.90;;;;;;5077698;28;20465;-60
2022/01/15 05:06:22;;;;;;;32.60;21.50;;;1.30;99.90;;;;;;5075986;28;20460;-61
2022/01/15 05:09:01;;;;;;;23.37;15.20;;;1.30;99.90;;;;;;5082514;28;20469;-61
2022/01/15 05:11:31;;;;;;;70.93;39.17;;;1.30;99.90;;;;;;5080042;28;20460;-60
2022/01/15 05:13:58;;;;;;;34.60;19.13;;;1.30;99.90;;;;;;5086867;28;20889;-61
2022/01/15 05:16:25;;;;;;;20.60;12.77;;;1.30;99.90;;;;;;5082724;28;20520;-61
2022/01/15 05:18:52;;;;;;;19.80;10.70;;;1.20;99.90;;;;;;5077829;28;20449;-61
2022/01/15 05:21:20;;;;;;;17.43;10.73;;;1.20;99.90;;;;;;5082861;28;20541;-61
2022/01/15 05:23:47;;;;;;;17.23;10.20;;;1.20;99.90;;;;;;5076631;28;20465;-61
2022/01/15 05:26:15;;;;;;;25.47;16.10;;;1.20;99.90;;;;;;5079548;28;20466;-61
2022/01/15 05:28:42;;;;;;;25.90;13.83;;;1.30;99.90;;;;;;5074819;28;20473;-61
2022/01/15 05:31:09;;;;;;;19.03;11.33;;;1.30;99.90;;;;;;5070978;28;20506;-61
2022/01/15 05:33:36;;;;;;;27.33;16.60;;;1.20;99.90;;;;;;5073427;28;20451;-61
2022/01/15 05:36:04;;;;;;;20.23;12.00;;;1.20;99.90;;;;;;5074327;28;20542;-61
2022/01/15 05:38:31;;;;;;;18.17;10.90;;;1.20;99.90;;;;;;5070214;28;20476;-61
2022/01/15 05:40:58;;;;;;;23.83;13.23;;;1.20;99.90;;;;;;5066464;28;20454;-61
2022/01/15 05:43:27;;;;;;;20.10;11.93;;;1.20;99.90;;;;;;5066147;28;20458;-61
2022/01/15 05:45:54;;;;;;;21.33;12.07;;;1.20;99.90;;;;;;5066071;28;20446;-61
2022/01/15 05:48:25;;;;;;;28.77;15.50;;;1.10;99.90;;;;;;5067664;28;20464;-61
2022/01/15 05:50:52;;;;;;;24.80;15.13;;;1.10;99.90;;;;;;5064752;28;20516;-61
2022/01/15 05:53:21;;;;;;;27.57;13.70;;;1.10;99.90;;;;;;5067413;28;20545;-61
2022/01/15 05:55:49;;;;;;;18.80;10.97;;;1.10;99.90;;;;;;5062397;28;20512;-61
2022/01/15 05:58:16;;;;;;;27.57;13.87;;;1.10;99.90;;;;;;5057404;28;20425;-61
2022/01/15 06:00:45;;;;;;;30.90;11.50;;;1.10;99.90;;;;;;5052730;28;20478;-61
2022/01/15 06:03:12;;;;;;;26.40;12.13;;;1.00;99.90;;;;;;5055552;28;20548;-61
2022/01/15 06:05:39;;;;;;;27.63;14.37;;;1.00;99.90;;;;;;5070324;28;20454;-61
2022/01/15 06:08:06;;;;;;;23.13;11.97;;;1.00;99.90;;;;;;5073656;28;20538;-61
2022/01/15 06:10:34;;;;;;;23.83;12.27;;;1.00;99.90;;;;;;5068528;28;20474;-61
2022/01/15 06:13:01;;;;;;;23.50;12.67;;;1.00;99.90;;;;;;5073015;28;20898;-61
2022/01/15 06:15:28;;;;;;;20.90;11.10;;;1.10;99.90;;;;;;5070820;28;20818;-61
2022/01/15 06:17:57;;;;;;;19.80;10.70;;;1.00;99.90;;;;;;5070579;28;20469;-61
2022/01/15 06:20:24;;;;;;;13.17;8.43;;;1.00;99.90;;;;;;5058614;28;20539;-61
2022/01/15 06:22:51;;;;;;;23.17;11.17;;;1.00;99.90;;;;;;5056909;28;20462;-61
2022/01/15 06:25:18;;;;;;;20.03;11.03;;;1.00;99.90;;;;;;5056783;28;20498;-61
2022/01/15 06:27:45;;;;;;;18.00;10.67;;;1.00;99.90;;;;;;5067260;28;20516;-61
2022/01/15 06:30:13;;;;;;;14.87;9.73;;;1.10;99.90;;;;;;5077939;28;20519;-61
2022/01/15 06:32:40;;;;;;;22.70;10.37;;;1.10;99.90;;;;;;5080920;28;20807;-61
2022/01/15 06:35:11;;;;;;;14.47;10.57;;;1.10;99.90;;;;;;5076927;28;20851;-61
2022/01/15 06:37:38;;;;;;;20.63;9.30;;;1.10;99.90;;;;;;5088155;28;20488;-61
2022/01/15 06:40:07;;;;;;;17.77;10.27;;;1.00;99.90;;;;;;5077370;28;20465;-63
2022/01/15 06:42:34;;;;;;;17.10;10.13;;;1.00;99.90;;;;;;5076694;28;20461;-63
2022/01/15 06:45:01;;;;;;;14.90;9.23;;;1.00;99.90;;;;;;5077375;28;20453;-63
2022/01/15 06:47:28;;;;;;;24.40;10.27;;;1.10;99.90;;;;;;5077235;28;20813;-63
2022/01/15 06:49:55;;;;;;;16.77;10.13;;;1.10;99.90;;;;;;5077234;28;20466;-63
2022/01/15 06:52:24;;;;;;;19.07;10.20;;;1.10;99.90;;;;;;5076774;28;20534;-63
2022/01/15 06:54:54;;;;;;;23.20;10.03;;;1.10;99.90;;;;;;5076781;28;20480;-63
2022/01/15 06:57:21;;;;;;;13.90;9.53;;;1.10;99.90;;;;;;5080099;28;20523;-63
2022/01/15 06:59:48;;;;;;;28.37;11.67;;;1.10;99.90;;;;;;5093232;28;20460;-63
2022/01/15 07:02:15;;;;;;;20.47;11.23;;;1.20;99.90;;;;;;5088329;28;20466;-63
2022/01/15 07:04:42;;;;;;;24.33;11.90;;;1.10;99.90;;;;;;5073632;28;20968;-63
2022/01/15 07:07:09;;;;;;;27.03;10.57;;;1.20;99.90;;;;;;5077857;28;20453;-63
2022/01/15 07:09:40;;;;;;;26.83;11.50;;;1.10;99.90;;;;;;5060964;28;20523;-63
2022/01/15 07:12:08;;;;;;;26.43;11.37;;;1.10;99.90;;;;;;5080718;28;20522;-63
2022/01/15 07:14:38;;;;;;;21.73;12.07;;;1.10;99.90;;;;;;5079918;28;20518;-63
2022/01/15 07:17:05;;;;;;;23.53;11.93;;;1.10;99.90;;;;;;5072973;28;20550;-63
2022/01/15 07:19:32;;;;;;;25.10;12.30;;;1.10;99.90;;;;;;5072801;28;20463;-63
2022/01/15 07:22:00;;;;;;;33.77;17.97;;;1.10;99.90;;;;;;5076376;28;20532;-63
2022/01/15 07:24:27;;;;;;;85.77;39.43;;;1.10;99.90;;;;;;5078711;28;20468;-63
2022/01/15 07:26:58;;;;;;;36.70;19.63;;;1.10;99.90;;;;;;5079453;28;20481;-63
2022/01/15 07:29:25;;;;;;;94.33;31.10;;;1.10;99.90;;;;;;5069036;28;20905;-63
2022/01/15 07:31:53;;;;;;;50.40;22.33;;;1.10;99.90;;;;;;5068831;28;20466;-63
2022/01/15 07:34:20;;;;;;;44.73;18.37;;;1.10;99.90;;;;;;5066217;28;20458;-63
2022/01/15 07:36:57;;;;;;;88.17;32.93;;;1.00;99.90;;;;;;5064577;28;20489;-63
2022/01/15 07:39:24;;;;;;;42.93;22.40;;;1.10;99.90;;;;;;5059914;28;20940;-63
2022/01/15 07:41:52;;;;;;;23.47;12.60;;;1.20;99.90;;;;;;5062737;28;20460;-63
2022/01/15 07:44:23;;;;;;;33.47;15.83;;;1.10;99.90;;;;;;5064833;28;20526;-63
2022/01/15 07:46:54;;;;;;;45.70;23.77;;;1.20;99.90;;;;;;5060475;28;20466;-63
2022/01/15 07:49:21;;;;;;;25.30;15.70;;;1.10;99.90;;;;;;5064925;28;20491;-63
2022/01/15 07:51:48;;;;;;;19.10;11.47;;;1.10;99.90;;;;;;5068712;28;20448;-63
2022/01/15 07:54:15;;;;;;;25.10;15.30;;;1.10;99.90;;;;;;5071751;28;20441;-63
2022/01/15 07:56:42;;;;;;;15.87;10.87;;;1.10;99.90;;;;;;5067802;28;20495;-63
2022/01/15 07:59:09;;;;;;;17.13;11.33;;;1.10;99.90;;;;;;5071594;28;20465;-63
2022/01/15 08:01:38;;;;;;;19.43;11.03;;;1.10;99.90;;;;;;5071115;28;20493;-63
2022/01/15 08:04:05;;;;;;;28.30;17.27;;;1.10;99.90;;;;;;5070156;28;20497;-63
2022/01/15 08:06:33;;;;;;;23.10;15.93;;;1.10;99.90;;;;;;5068952;28;20480;-63
2022/01/15 08:09:00;;;;;;;15.87;10.30;;;1.10;99.90;;;;;;5068189;28;20457;-63
2022/01/15 08:11:27;;;;;;;18.07;9.80;;;1.00;99.90;;;;;;5067450;28;20472;-63
2022/01/15 08:13:54;;;;;;;19.83;10.77;;;1.00;99.90;;;;;;5071130;28;20464;-63
2022/01/15 08:16:21;;;;;;;17.77;11.23;;;1.10;99.90;;;;;;5073141;28;20470;-63
2022/01/15 08:18:52;;;;;;;15.07;10.13;;;1.10;99.90;;;;;;5067541;28;20450;-63
2022/01/15 08:21:19;;;;;;;21.80;13.10;;;1.10;99.90;;;;;;5067002;28;20462;-63
2022/01/15 08:23:47;;;;;;;17.80;11.00;;;1.20;99.90;;;;;;5067782;28;20446;-63
2022/01/15 08:26:14;;;;;;;15.87;10.30;;;1.20;99.90;;;;;;5073644;28;20457;-63
2022/01/15 08:28:41;;;;;;;14.47;9.53;;;1.20;99.90;;;;;;5076340;28;20486;-63
2022/01/15 08:31:08;;;;;;;15.80;10.17;;;1.20;99.90;;;;;;5073187;28;20476;-63
2022/01/15 08:33:35;;;;;;;22.47;11.30;;;1.20;99.90;;;;;;5069718;28;20542;-63
2022/01/15 08:36:04;;;;;;;17.50;10.83;;;1.30;99.90;;;;;;5068940;28;20454;-63
2022/01/15 08:38:31;;;;;;;16.97;10.37;;;1.30;99.90;;;;;;5070872;28;20787;-63
2022/01/15 08:40:58;;;;;;;16.37;11.63;;;1.30;99.90;;;;;;5079566;28;20465;-63
2022/01/15 08:43:25;;;;;;;18.00;10.40;;;1.30;99.90;;;;;;5073812;28;20469;-63
2022/01/15 08:45:53;;;;;;;12.00;8.90;;;1.40;99.90;;;;;;5062217;28;20488;-63
2022/01/15 08:48:20;;;;;;;11.57;8.90;;;1.40;99.90;;;;;;5063737;28;20860;-63
2022/01/15 08:50:47;;;;;;;17.23;9.20;;;1.40;99.90;;;;;;5057376;28;20466;-63
2022/01/15 08:53:17;;;;;;;13.43;9.27;;;1.40;99.90;;;;;;5056304;28;20830;-63
2022/01/15 08:55:44;;;;;;;14.70;9.77;;;1.40;99.90;;;;;;5057794;28;20466;-64
2022/01/15 08:58:11;;;;;;;13.57;9.37;;;1.50;99.90;;;;;;5058466;28;20506;-64
2022/01/15 09:00:41;;;;;;;16.10;9.57;;;1.50;99.90;;;;;;5057078;28;20795;-64
2022/01/15 09:03:08;;;;;;;13.77;9.53;;;1.50;99.90;;;;;;5058912;28;20493;-64
2022/01/15 09:05:36;;;;;;;14.53;8.57;;;1.60;99.90;;;;;;5058286;28;20465;-64
2022/01/15 09:08:06;;;;;;;16.37;10.90;;;1.50;99.90;;;;;;5058833;28;20545;-64
2022/01/15 09:10:41;;;;;;;13.80;9.50;;;1.50;99.90;;;;;;5058216;28;20466;-64
2022/01/15 09:13:08;;;;;;;11.00;8.90;;;1.60;99.90;;;;;;5058502;28;20805;-64
2022/01/15 09:15:37;;;;;;;11.93;8.30;;;1.70;99.90;;;;;;5058485;28;20432;-64
2022/01/15 09:18:05;;;;;;;10.33;8.07;;;1.70;99.90;;;;;;5058508;28;20551;-64
2022/01/15 09:20:32;;;;;;;11.60;8.33;;;1.80;99.90;;;;;;5058644;28;20470;-64
2022/01/15 09:22:59;;;;;;;12.70;9.00;;;1.80;99.90;;;;;;5057240;28;20462;-64
2022/01/15 09:25:29;;;;;;;11.30;7.60;;;1.80;99.90;;;;;;5056960;28;20464;-64
2022/01/15 09:30:48;;;;;;;10.53;7.87;;;1.90;99.90;;;;;;5062140;28;20751;-64
2022/01/15 09:33:16;;;;;;;11.63;8.37;;;2.00;99.90;;;;;;5056778;28;20466;-64
2022/01/15 09:35:43;;;;;;;12.73;8.90;;;2.00;99.90;;;;;;5057765;28;20892;-64
2022/01/15 09:38:11;;;;;;;12.73;8.00;;;2.00;99.90;;;;;;5062064;28;20521;-64
2022/01/15 09:40:40;;;;;;;12.30;8.53;;;2.00;99.90;;;;;;5077051;28;20500;-64
2022/01/15 09:43:09;;;;;;;12.70;9.30;;;2.10;99.90;;;;;;5078152;28;20902;-64
2022/01/15 09:45:39;;;;;;;12.70;8.93;;;2.20;99.90;;;;;;5077985;28;20461;-64
2022/01/15 09:48:07;;;;;;;11.67;8.53;;;2.20;99.90;;;;;;5077877;28;20462;-64
2022/01/15 09:50:37;;;;;;;13.07;7.87;;;2.30;99.90;;;;;;5077551;28;20505;-64
2022/01/15 09:53:06;;;;;;;12.60;8.23;;;2.40;99.90;;;;;;5075479;28;20465;-64
2022/01/15 09:55:33;;;;;;;9.90;7.47;;;2.40;99.90;;;;;;5059453;28;20466;-64
2022/01/15 09:58:01;;;;;;;12.57;8.03;;;2.50;99.90;;;;;;5073184;28;20592;-64
2022/01/15 10:00:32;;;;;;;12.10;8.50;;;2.50;99.90;;;;;;5074990;28;20472;-64
2022/01/15 10:03:00;;;;;;;10.00;7.73;;;2.40;99.90;;;;;;5037407;28;20459;-64
2022/01/15 10:05:28;;;;;;;8.90;6.90;;;2.50;99.90;;;;;;5063566;28;20538;-64
2022/01/15 10:08:00;;;;;;;11.43;8.97;;;2.60;99.90;;;;;;5072765;28;20541;-64
2022/01/15 10:10:30;;;;;;;10.83;7.10;;;2.60;99.90;;;;;;5068312;28;20488;-64
2022/01/15 10:13:11;;;;;;;8.53;6.23;;;2.60;99.90;;;;;;5057669;28;20524;-64
2022/01/15 10:15:39;;;;;;;10.20;6.93;;;2.60;99.90;;;;;;5056973;28;20466;-63
2022/01/15 10:18:24;;;;;;;7.70;6.50;;;2.60;99.90;;;;;;5057452;28;20845;-63
2022/01/15 10:20:53;;;;;;;8.40;6.37;;;2.70;99.90;;;;;;5056838;28;20462;-63
2022/01/15 10:23:23;;;;;;;10.80;8.30;;;2.70;99.90;;;;;;5063762;28;20471;-63
2022/01/15 10:26:15;;;;;;;8.40;6.53;;;2.80;99.90;;;;;;5059697;28;20557;-63
2022/01/15 10:28:50;;;;;;;8.20;6.07;;;2.80;99.90;;;;;;5053469;28;20482;-63
2022/01/15 10:31:22;;;;;;;9.40;7.47;;;2.90;99.90;;;;;;5064188;28;20531;-63
2022/01/15 10:33:49;;;;;;;7.80;6.40;;;2.80;99.90;;;;;;5076244;28;20461;-63
2022/01/15 10:36:22;;;;;;;9.30;6.33;;;2.80;99.90;;;;;;5075095;28;20506;-63
2022/01/15 10:38:49;;;;;;;9.13;6.60;;;2.90;99.90;;;;;;5076761;28;20797;-63
2022/01/15 10:41:34;;;;;;;8.87;7.33;;;3.00;99.90;;;;;;5075870;28;20523;-63
2022/01/15 10:44:34;;;;;;;9.77;7.53;;;3.00;99.90;;;;;;5095148;28;20537;-63
2022/01/15 10:47:10;;;;;;;9.60;7.13;;;3.10;99.90;;;;;;5087097;28;20495;-63
2022/01/15 10:49:39;;;;;;;44.03;24.57;;;3.10;99.90;;;;;;5075882;28;20457;-63
2022/01/15 10:52:09;;;;;;;14.43;9.60;;;3.10;99.90;;;;;;5075463;28;20457;-63
2022/01/15 10:54:49;;;;;;;8.90;6.63;;;3.20;99.90;;;;;;5076016;28;20458;-63
2022/01/15 10:57:20;;;;;;;9.13;5.87;;;3.20;99.90;;;;;;5076570;28;20458;-63
2022/01/15 11:00:13;;;;;;;7.57;6.40;;;3.20;99.90;;;;;;5076870;28;20472;-63
2022/01/15 11:02:44;;;;;;;8.33;6.13;;;3.20;99.90;;;;;;5076962;28;20457;-63
2022/01/15 11:05:32;;;;;;;6.83;5.57;;;3.20;99.90;;;;;;5075621;28;20755;-63
2022/01/15 11:08:16;;;;;;;7.50;5.60;;;3.30;99.90;;;;;;5076280;28;20464;-63
2022/01/15 11:10:45;;;;;;;10.03;6.50;;;3.30;99.90;;;;;;5076856;28;20959;-63
2022/01/15 11:13:15;;;;;;;12.33;8.03;;;3.40;99.90;;;;;;5075498;28;20465;-63
2022/01/15 11:15:47;;;;;;;8.90;6.63;;;3.40;99.90;;;;;;5076342;28;20475;-63
2022/01/15 11:18:19;;;;;;;11.17;9.57;;;3.40;99.90;;;;;;5076754;28;20493;-63
2022/01/15 11:20:50;;;;;;;30.93;23.63;;;3.40;99.90;;;;;;5077043;28;20465;-63
2022/01/15 11:23:22;;;;;;;9.20;6.60;;;3.50;99.90;;;;;;5075939;28;20475;-63
2022/01/15 11:25:50;;;;;;;9.10;6.87;;;3.50;99.90;;;;;;5076497;28;20542;-63
2022/01/15 11:28:21;;;;;;;10.67;7.10;;;3.50;99.90;;;;;;5076360;28;20808;-63
2022/01/15 11:30:51;;;;;;;11.23;8.90;;;3.60;99.90;;;;;;5076493;28;20560;-63
2022/01/15 11:33:22;;;;;;;12.50;9.67;;;3.50;99.90;;;;;;5075239;28;20476;-63
2022/01/15 11:35:50;;;;;;;11.93;9.13;;;3.60;99.90;;;;;;5075035;28;20458;-63
2022/01/15 11:38:40;;;;;;;12.77;6.80;;;3.60;99.90;;;;;;5075018;28;20593;-62
2022/01/15 11:41:22;;;;;;;8.03;6.33;;;3.80;99.90;;;;;;5074933;28;20461;-62
2022/01/15 11:43:50;;;;;;;11.23;8.53;;;3.70;99.90;;;;;;5075535;28;20458;-61
2022/01/15 11:46:29;;;;;;;9.07;6.90;;;3.80;99.90;;;;;;5075164;28;20890;-61
2022/01/15 11:49:42;;;;;;;8.70;6.33;;;3.90;99.90;;;;;;5076045;28;20511;-61
2022/01/15 11:52:43;;;;;;;8.03;6.40;;;4.10;99.90;;;;;;5077268;28;20464;-61
2022/01/15 11:55:22;;;;;;;8.40;5.80;;;4.20;99.90;;;;;;5077522;28;20967;-63
2022/01/15 11:57:58;;;;;;;8.53;7.27;;;4.30;99.90;;;;;;5078826;28;20524;-62
2022/01/15 12:00:34;;;;;;;8.13;7.20;;;4.10;99.90;;;;;;5080093;28;20514;-62
2022/01/15 12:03:16;;;;;;;8.93;6.37;;;4.10;99.90;;;;;;5080407;28;20466;-62
2022/01/15 12:05:48;;;;;;;8.10;6.17;;;4.20;99.90;;;;;;5075853;28;20465;-62
2022/01/15 12:08:36;;;;;;;6.90;5.83;;;4.30;99.90;;;;;;5079574;28;20544;-62
2022/01/15 12:11:09;;;;;;;8.63;6.57;;;4.30;99.90;;;;;;5080340;28;20784;-62
2022/01/15 12:13:51;;;;;;;10.80;7.60;;;4.20;99.90;;;;;;5079861;28;20462;-62
2022/01/15 12:19:12;;;;;;;7.30;5.87;;;4.30;99.90;;;;;;5059411;28;20477;-62
2022/01/15 12:21:52;;;;;;;6.63;5.93;;;4.40;99.90;;;;;;5064661;28;20460;-62
2022/01/15 12:24:41;;;;;;;5.83;5.23;;;4.30;99.90;;;;;;5077231;28;20465;-62
2022/01/15 12:27:11;;;;;;;9.47;7.30;;;4.40;99.90;;;;;;5059522;28;20548;-62
2022/01/15 12:29:38;;;;;;;8.97;6.50;;;4.30;99.90;;;;;;5077776;28;20772;-62
2022/01/15 12:32:06;;;;;;;6.10;5.50;;;4.30;99.90;;;;;;5079261;28;20897;-62
2022/01/15 12:34:33;;;;;;;5.63;5.10;;;4.20;99.90;;;;;;5058588;28;20448;-62
2022/01/15 12:37:01;;;;;;;6.60;4.87;;;4.10;99.90;;;;;;5076752;28;20530;-62
2022/01/15 12:39:39;;;;;;;6.63;5.23;;;4.10;99.90;;;;;;5079126;28;20999;-62
2022/01/15 12:42:10;;;;;;;8.37;5.90;;;4.20;99.90;;;;;;5079367;28;20538;-62
2022/01/15 12:44:45;;;;;;;7.70;6.90;;;4.20;99.90;;;;;;5078159;28;20469;-62
2022/01/15 12:47:19;;;;;;;8.80;7.57;;;4.10;99.90;;;;;;5077327;28;20511;-62
2022/01/15 12:49:52;;;;;;;6.67;4.80;;;4.10;99.90;;;;;;5061620;28;20902;-62
2022/01/15 12:52:23;;;;;;;6.00;5.30;;;4.00;99.90;;;;;;5077670;28;20449;-62
2022/01/15 12:54:54;;;;;;;10.60;6.50;;;4.10;99.90;;;;;;5074540;28;20489;-62
2022/01/15 12:57:40;;;;;;;7.60;5.30;;;4.10;99.90;;;;;;5076376;28;20515;-62
2022/01/15 13:00:08;;;;;;;6.67;5.50;;;4.10;99.90;;;;;;5077496;28;20556;-62
2022/01/15 13:02:36;;;;;;;6.60;5.40;;;4.10;99.90;;;;;;5078112;28;20886;-62
2022/01/15 13:05:03;;;;;;;6.30;5.20;;;4.20;99.90;;;;;;5076826;28;20527;-62
2022/01/15 13:07:49;;;;;;;6.67;5.30;;;4.10;99.90;;;;;;5076477;28;20530;-61
2022/01/15 13:10:37;;;;;;;21.27;13.00;;;4.10;99.90;;;;;;5076558;28;20894;-62
2022/01/15 13:13:08;;;;;;;30.47;16.60;;;4.00;99.90;;;;;;5077770;28;20487;-62
2022/01/15 13:15:35;;;;;;;13.77;9.90;;;3.90;99.90;;;;;;5077381;28;20515;-62
2022/01/15 13:18:10;;;;;;;13.80;9.43;;;3.90;99.90;;;;;;5077281;28;20489;-62